Horuphav, Denmark
Current Conditions -  °F | °C
As of 9:20 PM on Wednesday 26 Nov 2014 (Local Time) from EKSB Reporting Station
Broken Clouds Broken Clouds  
Wind Chill: 35°   Ceiling: 1300
Heat Index: 43°   Visibility: 6mi
Dew Point: 39°   Wind: 17mph
Humidity: 87%   Direction: 110°ESE
Pressure: 30.12"   Gusts: NA
Location:  54.91°N, 9.9°E
Report Text: EKSB 262020Z 11015KT 9999 BKN013 06/04 Q1020
Loading
Personal Weather Stations






























Interactive Weather Map New forecast layout! Learn more

10-Day Weather Forecast

Advertisements
Track Severe Weather on mobile